Portada
METAR-TAF:

METAR-TAF

Aeroports :

Litchfield Municipal Airport

Litchfield, Illinois, Estats Units d'Amèrica

latitud: 39-09-44N, longitud: 089-40-28W, altitud: 210 m

Observació

L'informe es va fer fa 16 minuts, a les 13:35 UTC
Vent 7 kt del Nord
Temperatura 3°C
Humitat 93%
Pressió 1012 hPa
Visibilitat: 11.3 km
Cel ennuvolat a una alçada de 1000 ft
Cel cobert a una alçada de 1800 ft

METAR: K3LF 181335Z AUTO 01007KT 7SM BKN010 OVC018 03/02 A2987 RMK AO2 T00300022

Hora: 07:51 (13:51 UTC)


TAF: manca

Observacions i pronòstics meteorològics de més de 4000 aeroports (METAR i TAF).

Les estacions disponibles són els punts grocs i vermells al mapa.

Posi el ratolí al punt desitjat per veure el nom de l'estació.

Feu clic per veure les observacions i els pronòstics meteorològics.

Per canviar el mapa: feu clic els botons verds amb una creu de color negre per apropar; al botó verd amb un guió per allunyar la imatge; o en les fletxes verdes per a mapes adjacents.


METAR-TAF: